Latest Weather Observations for Canterbury

IDN60801

Issued at 10:35 am EST Saturday 2 August 2014 (issued every 30 minutes, with the page automatically refreshed every 10 minutes)

About weather observations | Map of weather stations | Latest weather observations for NSW | Other Formats
Station Details ID: 066194 Name: CANTERBURY RACECOURSE AWS Lat: -33.91 Lon: 151.11 Height: 3.0 m
Data from the previous 72 hours. | See also: Recent months at Canterbury
Date/Time
EST
Temp
°C
App
Temp
°C
Dew
Point
Rel
Hum
%
Delta-T
°C
Wind Press
QNH
hPa
Press
MSL
hPa
Rain
since 9 am
mm
Dir
 
Spd
km/h
Gust
km/h
Spd
kts
Gust
kts
02/10:30am 12.3 6.4 -2.3 36 5.7 WSW 19 32 10 17 - - 0.0
02/10:00am 11.8 5.7 -2.0 38 5.4 WSW 20 30 11 16 - - 0.0
02/09:30am 10.9 5.0 -0.9 44 4.7 WSW 20 32 11 17 - - 0.0
02/09:00am 9.9 4.9 -1.2 46 4.3 W 15 28 8 15 - - 0.0
02/08:30am 8.8 3.4 -1.3 49 3.9 WSW 17 28 9 15 - - 0.0
02/08:00am 8.0 3.4 -1.0 53 3.5 W 13 17 7 9 - - 0.0
02/07:30am 6.6 3.2 -0.8 59 2.8 W 7 13 4 7 - - 0.0
02/07:00am 5.3 2.0 -1.4 62 2.5 W 6 7 3 4 - - 0.0
02/06:30am 6.2 2.7 -1.4 58 2.8 W 7 11 4 6 - - 0.0
02/06:00am 6.6 2.3 -1.3 57 3.0 WSW 11 19 6 10 - - 0.0
02/05:30am 6.8 2.9 -1.3 56 3.0 W 9 13 5 7 - - 0.0
02/05:00am 7.2 2.9 -1.7 53 3.3 W 11 15 6 8 - - 0.0
02/04:30am 8.1 2.7 -1.7 50 3.7 W 17 26 9 14 - - 0.0
02/04:00am 8.4 2.6 -1.4 50 3.7 W 19 30 10 16 - - 0.0
02/03:30am 8.5 2.7 -1.6 49 3.8 W 19 28 10 15 - - 0.0
02/03:00am 8.3 3.3 -1.5 50 3.7 W 15 22 8 12 - - 0.0
02/02:30am 8.5 2.7 -1.3 50 3.8 W 19 33 10 18 - - 0.0
02/02:00am 8.7 2.4 -1.1 50 3.8 W 22 32 12 17 - - 0.0
02/01:30am 8.9 2.2 -0.9 50 3.8 W 24 35 13 19 - - 0.0
02/01:00am 8.6 2.9 -0.4 53 3.5 W 19 33 10 18 - - 0.0
02/12:30am 8.5 3.7 0.0 55 3.4 W 15 24 8 13 - - 0.0
02/12:00am 7.1 3.9 0.8 64 2.5 WNW 7 11 4 6 - - 0.0
 
Date/Time
EST
Temp
°C
App
Temp
°C
Dew
Point
Rel
Hum
%
Delta-T
°C
Wind Press
QNH
hPa
Press
MSL
hPa
Rain
since 9 am
mm
Dir
 
Spd
km/h
Gust
km/h
Spd
kts
Gust
kts
01/11:30pm 7.0 3.8 0.9 65 2.4 W 7 11 4 6 - - 0.0
01/11:00pm 8.3 5.1 0.8 59 3.0 NNW 7 13 4 7 - - 0.0
01/10:30pm 8.3 4.0 1.0 60 2.9 NW 13 17 7 9 - - 0.0
01/10:00pm 8.8 5.2 0.8 57 3.2 W 9 15 5 8 - - 0.0
01/09:30pm 9.2 3.7 0.9 56 3.4 NW 19 28 10 15 - - 0.0
01/09:00pm 8.5 3.8 1.2 60 3.0 NW 15 26 8 14 - - 0.0
01/08:30pm 8.7 3.4 1.8 62 2.9 NW 19 32 10 17 - - 0.0
01/08:00pm 9.2 2.9 1.4 58 3.2 NW 24 35 13 19 - - 0.0
01/07:30pm 10.6 2.0 0.3 49 4.2 W 35 56 19 30 - - 0.0
01/07:23pm 11.1 3.0 -0.4 45 4.6 W 32 56 17 30 - - 0.0
01/07:00pm 11.3 4.6 -1.1 42 4.9 W 24 33 13 18 - - 0.0
01/06:30pm 12.2 4.6 -2.4 36 5.7 W 28 52 15 28 - - 0.0
01/06:15pm 12.9 5.2 -3.0 33 6.1 W 28 46 15 25 - - 0.0
01/06:00pm 13.2 7.1 -4.0 30 6.5 W 19 28 10 15 - - 0.0
01/05:30pm 13.4 6.7 -4.2 29 6.7 WNW 22 33 12 18 - - 0.0
01/05:00pm 14.1 6.9 -5.1 26 7.2 WNW 24 44 13 24 - - 0.0
01/04:30pm 15.2 9.1 -4.2 26 7.5 W 19 26 10 14 - - 0.0
01/04:00pm 15.5 7.6 -5.0 24 7.8 WNW 28 39 15 21 - - 0.0
01/03:30pm 15.9 8.8 -4.6 24 7.9 W 24 39 13 21 - - 0.0
01/03:00pm 16.1 8.9 -5.6 22 8.2 W 24 33 13 18 - - 0.0
01/02:30pm 16.2 9.9 -3.8 25 7.9 W 20 32 11 17 - - 0.0
01/02:03pm 16.2 8.3 -4.9 23 8.1 W 28 46 15 25 - - 0.0
01/02:00pm 16.2 7.8 -5.5 22 8.2 W 30 44 16 24 - - 0.0
01/01:47pm 16.3 8.3 -5.4 22 8.3 W 28 48 15 26 - - 0.0
01/01:30pm 16.3 9.9 -1.7 29 7.4 W 22 32 12 17 - - 0.0
01/01:08pm 15.5 7.9 -2.4 29 7.2 SW 28 46 15 25 - - 0.0
01/01:00pm 16.5 9.8 -1.1 30 7.4 WSW 24 37 13 20 - - 0.0
01/12:30pm 16.5 9.9 -0.7 31 7.3 WSW 24 35 13 19 - - 0.0
01/12:09pm 16.3 8.8 -1.7 29 7.4 WSW 28 48 15 26 - - 0.0
01/12:00pm 16.4 9.7 -0.8 31 7.2 WSW 24 39 13 21 - - 0.0
01/11:30am 18.4 11.8 1.9 33 7.5 W 26 41 14 22 - - 0.0
01/11:00am 17.8 9.9 0.9 32 7.5 WNW 32 46 17 25 - - 0.0
01/10:30am 17.9 10.9 1.8 34 7.2 WNW 28 48 15 26 - - 0.0
01/10:26am 17.6 10.5 1.2 33 7.3 WNW 28 48 15 26 - - 0.0
01/10:00am 17.3 12.0 3.2 39 6.5 WNW 20 32 11 17 - - 0.0
01/09:30am 17.1 12.4 3.4 40 6.3 WNW 17 24 9 13 - - 0.0
01/09:00am 16.9 12.9 2.9 39 6.4 NW 13 17 7 9 - - 0.0
01/08:30am 16.7 12.8 1.2 35 6.8 WNW 11 19 6 10 - - 0.0
01/08:00am 16.2 12.9 -0.1 33 6.9 W 7 11 4 6 - - 0.0
01/07:30am 15.7 11.1 -1.4 31 7.0 WSW 13 20 7 11 - - 0.0
01/07:00am 15.6 11.6 -1.9 30 7.1 WNW 9 15 5 8 - - 0.0
01/06:30am 16.5 11.7 -2.5 27 7.7 NW 13 19 7 10 - - 0.0
01/06:00am 13.9 9.9 -2.5 32 6.5 NNW 9 17 5 9 - - 0.0
01/05:30am 15.8 11.3 -3.1 27 7.5 W 11 17 6 9 - - 0.0
01/05:00am 16.7 11.9 -2.9 26 7.9 NNW 13 20 7 11 - - 0.0
01/04:30am 17.2 11.6 -3.0 25 8.2 N 17 22 9 12 - - 0.0
01/04:00am 16.8 11.2 -2.8 26 7.9 N 17 24 9 13 - - 0.0
01/03:30am 16.9 11.3 -2.7 26 7.9 N 17 22 9 12 - - 0.0
01/03:00am 17.5 11.9 -3.3 24 8.4 N 17 26 9 14 - - 0.0
01/02:30am 17.8 11.8 -3.0 24 8.5 N 19 26 10 14 - - 0.0
01/02:00am 17.9 11.9 -2.9 24 8.5 N 19 28 10 15 - - 0.0
01/01:30am 16.9 11.8 -2.2 27 7.8 N 15 20 8 11 - - 0.0
01/01:00am 16.8 11.7 -1.8 28 7.7 N 15 19 8 10 - - 0.0
01/12:30am 17.3 12.2 -1.9 27 8.0 N 15 22 8 12 - - 0.0
01/12:00am 17.8 12.3 -1.9 26 8.2 N 17 24 9 13 - - 0.0
 
Date/Time
EST
Temp
°C
App
Temp
°C
Dew
Point
Rel
Hum
%
Delta-T
°C
Wind Press
QNH
hPa
Press
MSL
hPa
Rain
since 9 am
mm
Dir
 
Spd
km/h
Gust
km/h
Spd
kts
Gust
kts
31/11:30pm 17.2 13.3 -1.4 28 7.8 N 9 13 5 7 - - 0.0
31/11:00pm 18.1 12.7 -1.7 26 8.3 N 17 22 9 12 - - 0.0
31/10:30pm 18.8 12.4 -1.6 25 8.6 N 22 30 12 16 - - 0.0
31/10:00pm 18.7 13.3 -1.7 25 8.6 N 17 33 9 18 - - 0.0
31/09:30pm 18.8 13.1 -1.1 26 8.5 N 19 28 10 15 - - 0.0
31/09:00pm 19.1 13.2 -0.8 26 8.6 NNW 20 32 11 17 - - 0.0
31/08:30pm 19.1 13.1 -1.4 25 8.7 N 20 32 11 17 - - 0.0
31/08:00pm 19.9 13.9 -1.8 23 9.2 NNW 20 32 11 17 - - 0.0
31/07:30pm 20.4 14.0 -2.0 22 9.5 NNW 22 33 12 18 - - 0.0
31/07:00pm 20.8 14.3 -2.3 21 9.8 NNW 22 35 12 19 - - 0.0
31/06:30pm 20.9 15.1 -1.6 22 9.7 NNW 19 30 10 16 - - 0.0
31/06:00pm 21.3 15.0 -1.3 22 9.8 NNW 22 32 12 17 - - 0.0
31/05:30pm 22.0 15.6 -2.0 20 10.4 NNW 22 33 12 18 - - 0.0
31/05:00pm 22.7 16.0 -1.4 20 10.6 NNW 24 39 13 21 - - 0.0
31/04:31pm 23.3 16.0 -0.2 21 10.6 NNW 28 46 15 25 - - 0.0
31/04:30pm 23.4 15.7 -0.1 21 10.6 NNW 30 43 16 23 - - 0.0
31/04:03pm 23.7 16.5 0.7 22 10.6 NNW 28 46 15 25 - - 0.0
31/04:00pm 23.8 17.0 0.8 22 10.6 NNW 26 46 14 25 - - 0.0
31/03:34pm 24.3 16.9 -0.8 19 11.3 NNW 28 46 15 25 - - 0.0
31/03:30pm 24.3 17.0 -0.1 20 11.1 NNW 28 43 15 23 - - 0.0
31/03:00pm 24.5 17.4 1.4 22 10.9 NNW 28 46 15 25 - - 0.0
31/02:30pm 24.2 16.7 1.2 22 10.7 NNW 30 54 16 29 - - 0.0
31/02:11pm 24.4 17.1 2.5 24 10.5 NNW 30 48 16 26 - - 0.0
31/02:00pm 24.2 17.2 1.8 23 10.6 NNW 28 44 15 24 - - 0.0
31/01:30pm 24.0 17.7 1.6 23 10.5 NNW 24 43 13 23 - - 0.0
31/01:00pm 24.0 17.3 1.6 23 10.5 NNW 26 43 14 23 - - 0.0
31/12:30pm 23.7 16.7 2.0 24 10.3 NNW 28 43 15 23 - - 0.0
31/12:00pm 23.3 18.3 3.8 28 9.5 N 19 28 10 15 - - 0.0
31/11:30am 22.0 16.8 3.6 30 8.9 N 20 32 11 17 - - 0.0
31/11:00am 21.2 15.2 3.4 31 8.5 NNW 24 35 13 19 - - 0.0
31/10:30am 20.9 15.7 3.6 32 8.3 NNW 20 30 11 16 - - 0.0
31/10:00am 20.2 15.3 4.3 35 7.7 NNW 19 30 10 16 - - 0.0
31/09:30am 19.3 14.3 3.5 35 7.4 N 19 30 10 16 - - 0.0
31/09:00am 18.6 14.2 4.8 40 6.6 N 17 32 9 17 - - 0.0
31/08:30am 16.6 13.7 6.4 51 5.0 N 11 17 6 9 - - 0.0
31/08:26am 16.3 13.4 6.7 53 4.7 N 11 17 6 9 - - 0.0
31/08:00am 11.3 11.1 8.9 85 1.2 CALM 0 0 0 0 - - 0.0
31/07:30am 7.4 5.4 6.2 92 0.5 NW 6 11 3 6 - - 0.0
31/07:00am 7.1 6.2 6.0 93 0.5 CALM 0 0 0 0 - - 0.0
31/06:30am 7.2 5.5 5.7 90 0.7 N 4 7 2 4 - - 0.0
31/06:00am 7.1 6.1 5.6 90 0.7 CALM 0 0 0 0 - - 0.0
31/05:30am 7.7 6.7 5.8 88 0.9 CALM 0 0 0 0 - - 0.0
31/05:00am 8.4 7.4 5.7 83 1.2 CALM 0 0 0 0 - - 0.0
31/04:30am 9.7 8.6 5.3 74 2.0 CALM 0 0 0 0 - - 0.0
31/04:00am 10.3 8.2 5.7 73 2.1 N 6 9 3 5 - - 0.0
31/03:30am 11.7 9.9 5.6 66 2.8 NNW 4 7 2 4 - - 0.0
31/03:00am 13.8 11.3 6.7 62 3.4 NNW 9 13 5 7 - - 0.0
31/02:30am 14.3 11.1 6.9 61 3.6 N 13 19 7 10 - - 0.0
31/02:00am 14.3 11.1 6.9 61 3.6 N 13 19 7 10 - - 0.0
31/01:30am 14.2 11.4 6.8 61 3.6 N 11 17 6 9 - - 0.0
31/01:00am 15.0 11.8 6.8 58 4.0 N 13 17 7 9 - - 0.0
31/12:30am 15.4 12.2 6.9 57 4.2 N 13 22 7 12 - - 0.0
31/12:00am 15.4 11.8 6.9 57 4.2 N 15 24 8 13 - - 0.0
 
Date/Time
EST
Temp
°C
App
Temp
°C
Dew
Point
Rel
Hum
%
Delta-T
°C
Wind Press
QNH
hPa
Press
MSL
hPa
Rain
since 9 am
mm
Dir
 
Spd
km/h
Gust
km/h
Spd
kts
Gust
kts
30/11:30pm 15.9 12.3 6.6 54 4.5 NNW 15 20 8 11 - - 0.0
30/11:00pm 15.7 12.5 6.7 55 4.4 NNW 13 20 7 11 - - 0.0
30/10:30pm 15.5 12.7 6.8 56 4.3 NNW 11 17 6 9 - - 0.0
30/10:00pm 14.7 12.6 6.5 58 4.0 NNW 7 13 4 7 - - 0.0
30/09:30pm 14.0 11.9 6.6 61 3.6 N 7 9 4 5 - - 0.0
30/09:00pm 12.5 11.2 6.1 65 3.0 N 2 7 1 4 - - 0.0
30/08:30pm 14.0 11.8 6.1 59 3.8 NNW 7 7 4 4 - - 0.0
30/08:00pm 16.4 14.1 5.7 49 5.2 NW 7 9 4 5 - - 0.0
30/07:30pm 17.5 14.5 5.8 46 5.7 NW 11 15 6 8 - - 0.0
30/07:00pm 17.7 15.1 5.9 46 5.8 NW 9 13 5 7 - - 0.0
30/06:30pm 18.5 15.1 6.0 44 6.1 NW 13 20 7 11 - - 0.0
30/06:00pm 18.9 15.5 5.7 42 6.5 NW 13 20 7 11 - - 0.0
30/05:30pm 19.5 15.7 5.9 41 6.7 NW 15 24 8 13 - - 0.0
30/05:00pm 20.2 15.9 5.4 38 7.3 WNW 17 28 9 15 - - 0.0
30/04:30pm 21.4 16.5 4.9 34 8.1 NW 20 32 11 17 - - 0.0
30/04:00pm 22.2 17.9 5.2 33 8.4 WNW 17 32 9 17 - - 0.0
30/03:30pm 22.4 17.8 5.4 33 8.5 NW 19 32 10 17 - - 0.0
30/03:00pm 22.7 17.8 5.2 32 8.7 WNW 20 32 11 17 - - 0.0
30/02:30pm 22.9 18.1 4.4 30 9.1 W 19 37 10 20 - - 0.0
30/02:00pm 23.1 18.2 5.1 31 9.0 W 20 32 11 17 - - 0.0
30/01:30pm 22.8 17.9 5.3 32 8.7 NW 20 33 11 18 - - 0.0
30/01:00pm 23.1 18.3 5.5 32 8.8 WNW 20 30 11 16 - - 0.0
30/12:30pm 22.7 19.0 6.5 35 8.3 WSW 15 24 8 13 - - 0.0
30/12:00pm 21.5 18.0 5.4 35 8.0 WSW 13 20 7 11 - - 0.0
30/11:30am 21.3 16.8 6.0 37 7.7 W 19 26 10 14 - - 0.0
30/11:00am 20.7 16.2 5.9 38 7.4 WNW 19 28 10 15 - - 0.0

Other Formats:

Comma delimited format used in spreadsheet applications
http://www.bom.gov.au/fwo/IDN60801/IDN60801.94766.axf

JavaScript Object Notation format (JSON) in row-major order
http://www.bom.gov.au/fwo/IDN60801/IDN60801.94766.json